Terminal Aerodrome Forecast
Issued by NWS St Louis, MO

Home | Current Version | Previous Version | Graphics & Text | Print | Product List | Glossary On
Versions: 1 2 3 4 5 6 7 8 9 10 11 12 13
000
FTUS43 KLSX 061739
TAFCOU
TAF
KCOU 061739Z 0618/0718 20012G20KT P6SM SCT040 BKN250
     FM062100 20012G20KT P6SM VCTS SCT050CB BKN120
     FM070400 22007KT 5SM -TSRA BKN040CB
      TEMPO 0704/0706 2SM +TSRA OVC020CB
     FM070700 29008KT 4SM -SHRA BR VCTS OVC020CB
     FM071300 36010KT 6SM -RA BR OVC010=

USA.gov is the U.S. government's official web portal to all federal, state and local government web resources and services.